首页
METAR-TAF:

METAR-TAF

机场 :

圣米格尔-德土库曼, 阿根廷

纬度: 26-51S, 经度: 065-06W, 海拔: 440米

当前天气观测

该预报发布于11分钟前的02:00 UTC
风速8节,风向
温度 18°C
湿度 94%
气压 1016 hPa
能見度: 2000
阴天层高于300英尺
小毛毛雨, 轻雾

METAR: SANT 230200Z 18008KT 2000 -DZ BR OVC003 18/17 Q1016

时间: 23:11 (02:11 UTC)

预报

该预报发布于3小时和11分钟前的23:00 UTC
预报有效从23日的 00点(UTC)到 23日的 24点(UTC)
风速5节,风向南转西南
能見度: 3000
散云层高于500英尺
多云层高于1000英尺
少量云层高于4000英尺, 积雨云.
雨, 毛毛雨
短暂存在
从 23日的 08点(UTC)到 23日的 11点(UTC)
风速3节,风向南转南东
能見度: 0200
多云层高于200英尺
多云层高于1000英尺
阴天层高于1500英尺
成为
从 23日的 12点(UTC)到 23日的 15点(UTC)
风速5节,风向东南
能見度: 7000
多云层高于2000英尺
多云层高于3000英尺

TAF: SANT 222300Z 2300/2324 20005KT 3000 RADZ SCT005 BKN010 FEW040CB TX24/2318Z TN17/2310Z TEMPO 2308/2311 16003KT 0200 BCFG/DZ BKN002 BKN010 OVC015 BECMG 2312/2315 14005KT 7000 BKN020 BKN030

超过4000个机场的气象观测和天气预报(METAR&TAF报告)。

可查询的气象台以黄色和红色小点在地图上表示。

将鼠标移到小点上方,可查看气象台名称。

然后点击查看天气观测和预报。

如需切换地图:点击带黑十字的绿色按钮放大地图;点击带横线的绿色按钮缩小地图;或者点击绿色箭头查看邻近地区的地图。


METAR-TAF: